createdAt,value
2018-09-17T00:01:37.601Z,101704.11
2018-09-17T00:04:06.676Z,101713.39
2018-09-17T00:06:35.449Z,101706.09
2018-09-17T00:09:04.317Z,101707.50
2018-09-17T00:11:33.388Z,101701.23
2018-09-17T00:14:02.654Z,101701.84
2018-09-17T00:16:32.027Z,101700.27
2018-09-17T00:19:01.030Z,101702.25
2018-09-17T00:21:30.060Z,101696.59
2018-09-17T00:23:59.166Z,101698.00
2018-09-17T00:26:27.901Z,101689.66
2018-09-17T00:28:56.681Z,101682.59
2018-09-17T00:31:25.443Z,101687.52
2018-09-17T00:33:54.482Z,101685.98
2018-09-17T00:36:23.588Z,101682.52
2018-09-17T00:38:52.442Z,101686.66
2018-09-17T00:41:21.226Z,101679.89
2018-09-17T00:43:50.764Z,101678.89
2018-09-17T00:46:19.526Z,101673.49
2018-09-17T00:48:48.825Z,101679.02
2018-09-17T00:51:18.283Z,101673.84
2018-09-17T00:53:47.104Z,101659.48
2018-09-17T00:56:15.860Z,101652.69
2018-09-17T00:58:45.233Z,101645.93
2018-09-17T01:01:14.035Z,101641.41
2018-09-17T01:03:43.294Z,101647.20
2018-09-17T01:06:12.039Z,101643.13
2018-09-17T01:08:40.765Z,101652.64
2018-09-17T01:11:09.635Z,101655.36
2018-09-17T01:13:38.699Z,101654.84
2018-09-17T01:16:08.058Z,101656.81
2018-09-17T01:18:36.775Z,101655.77
2018-09-17T01:21:05.988Z,101652.84
2018-09-17T01:23:34.990Z,101661.61
2018-09-17T01:26:03.742Z,101653.98
2018-09-17T01:28:32.514Z,101658.62
2018-09-17T01:31:01.291Z,101661.65
2018-09-17T01:33:30.010Z,101666.27
2018-09-17T01:35:59.033Z,101667.92
2018-09-17T01:38:29.175Z,101662.27
2018-09-17T01:40:58.821Z,101660.95
2018-09-17T01:43:27.914Z,101663.97
2018-09-17T01:45:57.255Z,101665.41
2018-09-17T01:48:26.497Z,101677.66
2018-09-17T01:50:55.775Z,101672.82
2018-09-17T01:53:25.140Z,101669.05
2018-09-17T01:55:54.697Z,101665.57
2018-09-17T01:58:23.503Z,101657.95
2018-09-17T02:00:52.509Z,101653.11
2018-09-17T02:03:21.242Z,101649.57
2018-09-17T02:05:49.951Z,101651.80
2018-09-17T02:08:18.673Z,101661.88
2018-09-17T02:10:47.443Z,101668.19
2018-09-17T02:13:16.411Z,101673.66
2018-09-17T02:15:45.114Z,101675.06
2018-09-17T02:18:13.868Z,101670.48
2018-09-17T02:20:43.329Z,101672.38
2018-09-17T02:23:18.616Z,101670.23
2018-09-17T02:25:47.909Z,101676.20
2018-09-17T02:28:17.175Z,101673.78
2018-09-17T02:30:45.920Z,101667.59
2018-09-17T02:33:15.296Z,101669.55
2018-09-17T02:35:44.821Z,101666.60
2018-09-17T02:38:14.523Z,101664.19
2018-09-17T02:40:43.574Z,101663.36
2018-09-17T02:43:12.652Z,101662.87
2018-09-17T02:45:41.383Z,101665.58
2018-09-17T02:48:10.455Z,101668.64
2018-09-17T02:50:39.762Z,101671.89
2018-09-17T02:53:08.525Z,101676.27
2018-09-17T02:55:37.819Z,101683.36
2018-09-17T02:58:07.208Z,101692.30
2018-09-17T03:00:36.258Z,101685.81
2018-09-17T03:03:05.027Z,101688.56
2018-09-17T03:05:33.803Z,101686.44
2018-09-17T03:08:02.810Z,101688.36
2018-09-17T03:10:32.070Z,101681.61
2018-09-17T03:13:01.055Z,101674.59
2018-09-17T03:15:40.828Z,101670.81
2018-09-17T03:18:10.247Z,101667.03
2018-09-17T03:20:39.050Z,101664.62
2018-09-17T03:23:07.758Z,101658.62
2018-09-17T03:25:36.850Z,101668.50
2018-09-17T03:28:05.986Z,101663.99
2018-09-17T03:30:34.712Z,101664.52
2018-09-17T03:33:04.224Z,101669.16
2018-09-17T03:35:33.011Z,101676.22
2018-09-17T03:38:15.822Z,101676.45
2018-09-17T03:40:45.007Z,101671.28
2018-09-17T03:43:14.034Z,101665.84
2018-09-17T03:45:42.807Z,101667.50
2018-09-17T03:48:11.975Z,101672.97
2018-09-17T03:50:40.993Z,101669.69
2018-09-17T03:53:10.055Z,101666.18
2018-09-17T03:55:39.231Z,101667.80
2018-09-17T03:58:08.045Z,101667.01
2018-09-17T04:00:37.227Z,101669.52
2018-09-17T04:03:06.396Z,101683.09
2018-09-17T04:05:35.611Z,101677.97
2018-09-17T04:08:04.914Z,101679.06
2018-09-17T04:10:33.731Z,101680.41
2018-09-17T04:13:02.479Z,101676.61
2018-09-17T04:15:31.208Z,101679.86
2018-09-17T04:18:00.857Z,101676.34
2018-09-17T04:20:29.888Z,101673.09
2018-09-17T04:22:58.813Z,101671.24
2018-09-17T04:25:27.972Z,101667.17
2018-09-17T04:27:57.256Z,101661.77
2018-09-17T04:30:25.970Z,101667.73
2018-09-17T04:32:55.062Z,101671.80
2018-09-17T04:35:23.789Z,101677.53
2018-09-17T04:37:52.578Z,101680.80
2018-09-17T04:40:21.683Z,101685.17
2018-09-17T04:42:50.731Z,101681.63
2018-09-17T04:45:19.785Z,101684.08
2018-09-17T04:47:48.519Z,101673.78
2018-09-17T04:50:17.523Z,101676.80
2018-09-17T04:52:46.299Z,101673.81
2018-09-17T04:55:15.019Z,101673.31
2018-09-17T04:57:44.436Z,101677.16
2018-09-17T05:00:13.246Z,101672.55
2018-09-17T05:02:42.078Z,101673.70
2018-09-17T05:05:11.447Z,101672.11
2018-09-17T05:07:40.182Z,101673.75
2018-09-17T05:10:08.961Z,101675.14
2018-09-17T05:12:38.085Z,101671.63
2018-09-17T05:15:07.350Z,101669.19
2018-09-17T05:17:36.441Z,101673.08
2018-09-17T05:20:05.648Z,101674.22
2018-09-17T05:22:34.362Z,101667.48
2018-09-17T05:25:03.093Z,101669.11
2018-09-17T05:27:32.376Z,101669.41
2018-09-17T05:30:01.102Z,101663.71
2018-09-17T05:32:30.221Z,101671.05
2018-09-17T05:34:58.985Z,101668.08
2018-09-17T05:37:28.619Z,101672.70
2018-09-17T05:39:57.675Z,101671.59
2018-09-17T05:42:26.726Z,101673.45
2018-09-17T05:44:56.150Z,101676.42
2018-09-17T05:47:25.090Z,101679.09
2018-09-17T05:49:53.839Z,101676.91
2018-09-17T05:52:22.919Z,101677.99
2018-09-17T05:54:51.833Z,101672.86
2018-09-17T05:57:20.728Z,101683.98
2018-09-17T05:59:49.466Z,101684.48
2018-09-17T06:02:18.580Z,101683.66
2018-09-17T06:04:47.368Z,101685.78
2018-09-17T06:07:16.203Z,101685.76
2018-09-17T06:09:45.063Z,101695.50
2018-09-17T06:12:14.172Z,101700.04
2018-09-17T06:14:43.335Z,101702.41
2018-09-17T06:17:13.330Z,101706.45
2018-09-17T06:19:42.333Z,101703.15
2018-09-17T06:22:11.341Z,101708.45
2018-09-17T06:24:40.720Z,101711.58
2018-09-17T06:27:09.526Z,101714.11
2018-09-17T06:29:38.718Z,101718.81
2018-09-17T06:32:07.454Z,101721.63
2018-09-17T06:34:36.791Z,101719.23
2018-09-17T06:37:06.155Z,101717.87
2018-09-17T06:39:34.880Z,101717.08
2018-09-17T06:42:03.988Z,101722.28
2018-09-17T06:44:32.814Z,101726.42
2018-09-17T06:47:01.944Z,101727.26
2018-09-17T06:49:31.025Z,101719.36
2018-09-17T06:52:00.159Z,101726.46
2018-09-17T06:54:29.257Z,101727.02
2018-09-17T06:56:58.575Z,101731.09
2018-09-17T06:59:27.614Z,101728.73
2018-09-17T07:01:56.495Z,101726.24
2018-09-17T07:04:25.539Z,101727.31
2018-09-17T07:06:54.825Z,101737.16
2018-09-17T07:09:23.630Z,101733.05
2018-09-17T07:11:52.510Z,101725.27
2018-09-17T07:14:21.529Z,101728.44
2018-09-17T07:16:50.691Z,101725.58
2018-09-17T07:19:19.703Z,101727.20
2018-09-17T07:21:48.775Z,101730.36
2018-09-17T07:24:17.831Z,101724.61
2018-09-17T07:26:46.539Z,101723.30
2018-09-17T07:29:15.307Z,101727.70
2018-09-17T07:31:50.247Z,101735.31
2018-09-17T07:34:19.417Z,101737.52
2018-09-17T07:36:48.689Z,101740.84
2018-09-17T07:39:17.509Z,101742.26
2018-09-17T07:41:46.482Z,101749.67
2018-09-17T07:44:15.246Z,101743.59
2018-09-17T07:46:44.005Z,101746.77
2018-09-17T07:49:13.001Z,101745.65
2018-09-17T07:51:41.834Z,101747.69
2018-09-17T07:54:10.995Z,101739.59
2018-09-17T07:56:39.801Z,101745.73
2018-09-17T07:59:08.542Z,101743.09
2018-09-17T08:01:37.950Z,101750.05
2018-09-17T08:04:06.950Z,101744.45
2018-09-17T08:06:35.830Z,101746.52
2018-09-17T08:09:07.310Z,101751.09
2018-09-17T08:11:36.501Z,101746.66
2018-09-17T08:14:05.300Z,101744.84
2018-09-17T08:16:34.327Z,101740.24
2018-09-17T08:19:03.194Z,101741.82
2018-09-17T08:21:31.920Z,101741.99
2018-09-17T08:24:01.668Z,101750.55
2018-09-17T08:26:31.376Z,101747.25
2018-09-17T08:29:00.134Z,101752.13
2018-09-17T08:31:28.945Z,101751.39
2018-09-17T08:33:57.770Z,101751.92
2018-09-17T08:36:26.517Z,101749.33
2018-09-17T08:38:55.313Z,101749.39
2018-09-17T08:41:24.693Z,101751.14
2018-09-17T08:43:54.123Z,101754.08
2018-09-17T08:46:23.121Z,101747.25
2018-09-17T08:48:52.154Z,101752.28
2018-09-17T08:51:20.899Z,101748.20
2018-09-17T08:53:49.711Z,101747.73
2018-09-17T08:56:26.582Z,101745.34
2018-09-17T08:58:59.838Z,101745.91
2018-09-17T09:02:33.572Z,101741.67
2018-09-17T09:05:07.382Z,101741.48
2018-09-17T09:07:37.149Z,101743.87
2018-09-17T09:10:12.103Z,101740.28
2018-09-17T09:12:41.956Z,101743.92
2018-09-17T09:15:16.161Z,101738.41
2018-09-17T09:17:45.162Z,101737.36
2018-09-17T09:20:14.192Z,101737.88
2018-09-17T09:22:43.206Z,101739.62
2018-09-17T09:25:12.386Z,101735.97
2018-09-17T09:27:42.124Z,101737.36
2018-09-17T09:30:10.856Z,101733.34
2018-09-17T09:32:40.347Z,101731.47
2018-09-17T09:35:09.349Z,101731.11
2018-09-17T09:37:38.628Z,101727.06
2018-09-17T09:40:07.409Z,101724.50
2018-09-17T09:42:36.594Z,101728.08
2018-09-17T09:45:05.415Z,101731.45
2018-09-17T09:47:34.543Z,101726.61
2018-09-17T09:50:03.575Z,101717.41
2018-09-17T09:52:33.376Z,101714.89
2018-09-17T09:55:02.445Z,101719.57
2018-09-17T09:57:31.600Z,101716.70
2018-09-17T10:00:00.754Z,101715.84
2018-09-17T10:02:31.523Z,101725.42
2018-09-17T10:05:00.864Z,101721.95
2018-09-17T10:07:29.974Z,101715.46
2018-09-17T10:11:05.422Z,101722.02
2018-09-17T10:13:39.571Z,101716.89
2018-09-17T10:16:13.846Z,101716.73
2018-09-17T10:18:48.012Z,101712.66
2018-09-17T10:21:17.041Z,101706.58
2018-09-17T10:23:46.942Z,101712.19
2018-09-17T10:26:16.516Z,101701.97
2018-09-17T10:28:45.832Z,101697.91
2018-09-17T10:31:14.710Z,101695.25
2018-09-17T10:33:43.517Z,101695.30
2018-09-17T10:36:12.588Z,101688.94
2018-09-17T10:38:42.335Z,101686.11
2018-09-17T10:41:11.343Z,101682.48
2018-09-17T10:43:40.128Z,101684.08
2018-09-17T10:46:09.218Z,101680.33
2018-09-17T10:48:38.006Z,101681.78
2018-09-17T10:51:06.887Z,101678.85
2018-09-17T10:53:35.908Z,101678.63
2018-09-17T10:56:05.203Z,101678.27
2018-09-17T10:58:34.549Z,101687.75
2018-09-17T11:01:03.525Z,101683.03
2018-09-17T11:03:32.886Z,101679.96
2018-09-17T11:06:02.202Z,101669.94
2018-09-17T11:08:31.556Z,101670.85
2018-09-17T11:11:00.565Z,101675.62
2018-09-17T11:13:29.553Z,101664.56
2018-09-17T11:15:58.902Z,101673.57
2018-09-17T11:18:28.054Z,101663.56
2018-09-17T11:20:56.991Z,101656.42
2018-09-17T11:23:26.022Z,101661.69
2018-09-17T11:25:55.218Z,101662.42
2018-09-17T11:28:24.323Z,101661.70
2018-09-17T11:30:53.448Z,101664.11
2018-09-17T11:33:22.190Z,101662.56
2018-09-17T11:35:51.669Z,101657.17
2018-09-17T11:38:23.486Z,101659.53
2018-09-17T11:40:53.048Z,101664.72
2018-09-17T11:43:21.901Z,101655.95
2018-09-17T11:45:50.969Z,101657.16
2018-09-17T11:48:19.857Z,101651.84
2018-09-17T11:50:48.946Z,101653.47
2018-09-17T11:53:18.893Z,101650.50
2018-09-17T11:55:48.293Z,101648.73
2018-09-17T11:58:17.340Z,101650.11
2018-09-17T12:00:51.287Z,101654.49
2018-09-17T12:03:25.144Z,101653.08
2018-09-17T12:06:04.385Z,101648.06
2018-09-17T12:08:33.750Z,101656.22
2018-09-17T12:11:02.553Z,101654.22
2018-09-17T12:13:31.585Z,101658.57
2018-09-17T12:16:00.377Z,101651.59
2018-09-17T12:18:29.628Z,101649.57
2018-09-17T12:20:59.009Z,101652.16
2018-09-17T12:23:28.386Z,101642.14
2018-09-17T12:25:57.441Z,101640.31
2018-09-17T12:28:26.226Z,101633.40
2018-09-17T12:37:55.996Z,101632.57
2018-09-17T12:40:25.951Z,101626.89
2018-09-17T12:42:54.825Z,101623.20
2018-09-17T12:45:24.436Z,101622.45
2018-09-17T12:47:54.018Z,101612.37
2018-09-17T12:50:23.140Z,101610.90
2018-09-17T12:52:52.208Z,101608.02
2018-09-17T12:55:21.007Z,101602.83
2018-09-17T12:57:49.758Z,101592.20
2018-09-17T13:00:18.770Z,101595.98
2018-09-17T13:02:47.761Z,101592.31
2018-09-17T13:05:16.618Z,101595.30
2018-09-17T13:07:45.738Z,101584.98
2018-09-17T13:10:14.827Z,101582.70
2018-09-17T13:12:43.928Z,101581.11
2018-09-17T13:15:12.739Z,101581.45
2018-09-17T13:17:42.111Z,101576.57
2018-09-17T13:20:11.119Z,101577.59
2018-09-17T13:22:40.270Z,101574.05
2018-09-17T13:25:09.294Z,101571.26
2018-09-17T13:27:38.088Z,101574.75
2018-09-17T13:30:07.274Z,101566.58
2018-09-17T13:32:36.653Z,101567.40
2018-09-17T13:35:05.781Z,101564.42
2018-09-17T13:37:34.951Z,101558.94
2018-09-17T13:40:03.751Z,101557.11
2018-09-17T13:42:32.601Z,101562.61
2018-09-17T13:45:01.396Z,101561.11
2018-09-17T13:47:30.395Z,101556.69
2018-09-17T13:49:59.609Z,101551.57
2018-09-17T13:52:28.942Z,101551.45
2018-09-17T13:54:57.703Z,101555.77
2018-09-17T13:57:26.522Z,101555.61
2018-09-17T13:59:55.357Z,101555.23
2018-09-17T14:02:24.114Z,101549.64
2018-09-17T14:04:53.166Z,101548.14
2018-09-17T14:07:22.217Z,101545.42
2018-09-17T14:09:51.003Z,101548.23
2018-09-17T14:12:19.719Z,101548.37
2018-09-17T14:14:48.710Z,101532.73
2018-09-17T14:17:17.484Z,101540.95
2018-09-17T14:19:46.871Z,101542.73
2018-09-17T14:22:15.943Z,101532.58
2018-09-17T14:24:44.683Z,101533.41
2018-09-17T14:27:14.205Z,101528.98
2018-09-17T14:29:43.277Z,101528.87
2018-09-17T14:32:17.250Z,101531.95
2018-09-17T14:34:46.408Z,101531.20
2018-09-17T14:37:16.068Z,101531.97
2018-09-17T14:39:44.906Z,101530.45
2018-09-17T14:42:14.024Z,101527.94
2018-09-17T14:44:43.136Z,101522.22
2018-09-17T14:47:12.225Z,101521.11
2018-09-17T14:49:41.453Z,101512.38
2018-09-17T14:52:10.576Z,101506.16
2018-09-17T14:54:39.469Z,101507.52
2018-09-17T14:57:08.140Z,101502.52
2018-09-17T14:59:37.420Z,101505.27
2018-09-17T15:02:06.505Z,101501.66
2018-09-17T15:04:35.357Z,101494.92
2018-09-17T15:07:04.126Z,101495.58
2018-09-17T15:09:32.884Z,101495.30
2018-09-17T15:12:02.513Z,101483.71
2018-09-17T15:14:31.344Z,101484.20
2018-09-17T15:17:00.501Z,101485.69
2018-09-17T15:19:29.279Z,101485.13
2018-09-17T15:21:58.092Z,101487.87
2018-09-17T15:24:26.965Z,101476.34
2018-09-17T15:26:55.716Z,101475.05
2018-09-17T15:29:24.748Z,101476.29
2018-09-17T15:31:53.489Z,101475.36
2018-09-17T15:34:22.298Z,101466.30
2018-09-17T15:36:51.332Z,101461.52
2018-09-17T15:39:21.187Z,101459.02
2018-09-17T15:41:50.276Z,101447.88
2018-09-17T15:44:19.104Z,101446.19
2018-09-17T15:46:48.102Z,101441.03
2018-09-17T15:49:17.113Z,101440.70
2018-09-17T15:51:45.995Z,101436.77
2018-09-17T15:54:15.090Z,101438.02
2018-09-17T15:56:44.080Z,101440.14
2018-09-17T15:59:12.984Z,101436.64
2018-09-17T16:01:42.200Z,101432.75
2018-09-17T16:04:11.231Z,101438.03
2018-09-17T16:06:40.809Z,101439.25
2018-09-17T16:09:09.522Z,101434.77
2018-09-17T16:11:38.576Z,101429.69
2018-09-17T16:14:08.561Z,101436.87
2018-09-17T16:16:37.264Z,101433.95
2018-09-17T16:19:06.145Z,101432.61
2018-09-17T16:21:35.217Z,101436.44
2018-09-17T16:24:04.647Z,101441.83
2018-09-17T16:26:33.682Z,101433.31
2018-09-17T16:29:02.420Z,101438.47
2018-09-17T16:31:31.473Z,101434.91
2018-09-17T16:34:00.213Z,101434.09
2018-09-17T16:36:29.623Z,101432.91
2018-09-17T16:38:58.926Z,101425.16
2018-09-17T16:41:27.711Z,101428.94
2018-09-17T16:43:56.458Z,101431.91
2018-09-17T16:46:25.578Z,101423.36
2018-09-17T16:48:54.664Z,101427.59
2018-09-17T16:51:23.396Z,101424.47
2018-09-17T16:53:52.343Z,101423.28
2018-09-17T16:56:21.526Z,101423.69
2018-09-17T16:58:50.590Z,101423.48
2018-09-17T17:01:19.302Z,101426.45
2018-09-17T17:03:48.610Z,101428.88
2018-09-17T17:06:18.277Z,101428.48
2018-09-17T17:08:49.321Z,101430.09
2018-09-17T17:11:23.274Z,101434.64
2018-09-17T17:13:53.775Z,101430.44
2018-09-17T17:16:28.510Z,101432.60
2018-09-17T17:19:04.849Z,101430.80
2018-09-17T17:21:34.191Z,101423.06
2018-09-17T17:24:05.157Z,101426.03
2018-09-17T17:26:34.793Z,101417.27
2018-09-17T17:29:03.818Z,101416.41
2018-09-17T17:31:32.617Z,101419.94
2018-09-17T17:34:02.380Z,101418.93
2018-09-17T17:36:31.090Z,101424.05
2018-09-17T17:39:00.207Z,101419.24
2018-09-17T17:41:29.305Z,101418.41
2018-09-17T17:43:59.245Z,101411.00
2018-09-17T17:46:28.267Z,101412.48
2018-09-17T17:48:57.036Z,101407.06
2018-09-17T17:51:26.827Z,101412.51
2018-09-17T17:53:56.938Z,101414.96
2018-09-17T17:56:28.963Z,101411.72
2018-09-17T17:58:57.686Z,101409.00
2018-09-17T18:01:28.213Z,101412.42
2018-09-17T18:03:57.472Z,101412.11
2018-09-17T18:06:26.230Z,101413.55
2018-09-17T18:08:55.078Z,101417.17
2018-09-17T18:11:24.017Z,101413.99
2018-09-17T18:13:53.443Z,101415.64
2018-09-17T18:16:26.251Z,101415.46
2018-09-17T18:18:55.503Z,101407.95
2018-09-17T18:21:24.254Z,101409.77
2018-09-17T18:23:53.661Z,101414.50
2018-09-17T18:26:22.408Z,101418.28
2018-09-17T18:28:51.758Z,101409.77
2018-09-17T18:31:20.487Z,101407.22
2018-09-17T18:33:49.269Z,101409.23
2018-09-17T18:36:18.392Z,101398.98
2018-09-17T18:38:47.493Z,101395.51
2018-09-17T18:41:16.252Z,101400.06
2018-09-17T18:43:45.418Z,101405.97
2018-09-17T18:46:14.471Z,101402.80
2018-09-17T18:48:43.329Z,101402.23
2018-09-17T18:51:12.684Z,101400.09
2018-09-17T18:53:41.765Z,101399.07
2018-09-17T18:56:10.844Z,101398.24
2018-09-17T18:58:39.586Z,101393.63
2018-09-17T19:01:08.554Z,101395.72
2018-09-17T19:03:37.705Z,101392.96
2018-09-17T19:06:06.789Z,101391.50
2018-09-17T19:08:35.572Z,101389.30
2018-09-17T19:11:04.654Z,101395.61
2018-09-17T19:13:34.181Z,101395.95
2018-09-17T19:16:02.942Z,101391.72
2018-09-17T19:18:31.689Z,101395.92
2018-09-17T19:21:00.940Z,101384.30
2018-09-17T19:23:35.189Z,101385.28
2018-09-17T19:26:04.061Z,101387.21
2018-09-17T19:28:37.978Z,101381.77
2018-09-17T19:31:07.302Z,101385.23
2018-09-17T19:33:36.292Z,101378.62
2018-09-17T19:36:05.308Z,101372.16
2018-09-17T19:38:39.305Z,101370.02
2018-09-17T19:41:08.657Z,101368.20
2018-09-17T19:43:37.880Z,101369.09
2018-09-17T19:46:11.924Z,101369.23
2018-09-17T19:48:40.774Z,101370.88
2018-09-17T19:52:13.506Z,101374.02
2018-09-17T19:54:42.705Z,101364.78
2018-09-17T19:57:16.567Z,101363.42
2018-09-17T19:59:56.491Z,101355.31
2018-09-17T20:02:25.630Z,101356.60
2018-09-17T20:04:59.822Z,101353.19
2018-09-17T20:07:29.104Z,101350.36
2018-09-17T20:09:58.602Z,101350.35
2018-09-17T20:12:27.751Z,101348.30
2018-09-17T20:14:56.507Z,101352.56
2018-09-17T20:17:25.954Z,101348.79
2018-09-17T20:19:54.715Z,101352.66
2018-09-17T20:22:23.547Z,101347.95
2018-09-17T20:24:52.350Z,101345.78
2018-09-17T20:27:21.075Z,101343.13
2018-09-17T20:29:50.211Z,101342.91
2018-09-17T20:32:19.211Z,101346.45
2018-09-17T20:34:48.064Z,101340.16
2018-09-17T20:37:16.924Z,101340.97
2018-09-17T20:39:45.693Z,101336.94
2018-09-17T20:42:14.516Z,101338.77
2018-09-17T20:44:43.426Z,101332.23
2018-09-17T20:47:12.385Z,101336.31
2018-09-17T20:49:41.934Z,101336.77
2018-09-17T20:52:11.314Z,101320.22
2018-09-17T20:54:40.139Z,101325.80
2018-09-17T20:57:09.206Z,101323.83
2018-09-17T20:59:37.916Z,101318.59
2018-09-17T21:02:06.706Z,101321.30
2018-09-17T21:04:35.443Z,101320.20
2018-09-17T21:07:04.470Z,101313.11
2018-09-17T21:09:33.801Z,101305.89
2018-09-17T21:12:03.141Z,101307.47
2018-09-17T21:14:32.172Z,101303.80
2018-09-17T21:17:02.604Z,101307.56
2018-09-17T21:19:33.152Z,101304.23
2018-09-17T21:22:04.284Z,101295.98
2018-09-17T21:24:35.525Z,101294.23
2018-09-17T21:27:06.660Z,101293.09
2018-09-17T21:29:37.904Z,101287.24
2018-09-17T21:32:08.660Z,101288.26
2018-09-17T21:34:39.590Z,101278.88
2018-09-17T21:37:10.725Z,101280.68
2018-09-17T21:39:41.349Z,101281.66
2018-09-17T21:42:11.337Z,101278.78
2018-09-17T21:44:41.602Z,101271.02
2018-09-17T21:47:11.737Z,101272.48
2018-09-17T21:49:40.807Z,101274.52
2018-09-17T21:52:10.086Z,101269.48
2018-09-17T21:54:39.378Z,101277.00
2018-09-17T21:57:08.164Z,101270.26
2018-09-17T21:59:37.492Z,101271.20
2018-09-17T22:02:06.540Z,101271.30
2018-09-17T22:04:35.952Z,101266.84
2018-09-17T22:07:04.743Z,101267.27
2018-09-17T22:09:33.468Z,101257.80
2018-09-17T22:12:02.433Z,101263.45
2018-09-17T22:14:31.520Z,101259.11
2018-09-17T22:17:00.240Z,101256.12
2018-09-17T22:19:29.222Z,101256.02
2018-09-17T22:21:58.266Z,101252.00
2018-09-17T22:24:27.294Z,101245.27
2018-09-17T22:26:56.304Z,101241.50
2018-09-17T22:29:25.106Z,101237.70
2018-09-17T22:31:54.419Z,101239.06
2018-09-17T22:34:23.410Z,101238.86
2018-09-17T22:36:52.162Z,101230.41
2018-09-17T22:39:21.553Z,101229.72
2018-09-17T22:41:50.689Z,101226.26
2018-09-17T22:44:19.697Z,101224.44
2018-09-17T22:46:48.518Z,101229.42
2018-09-17T22:49:17.239Z,101219.61
2018-09-17T22:51:46.253Z,101215.51
2018-09-17T22:54:15.271Z,101218.03
2018-09-17T22:56:43.999Z,101205.49
2018-09-17T22:59:13.055Z,101207.64
2018-09-17T23:01:41.792Z,101206.52
2018-09-17T23:04:10.759Z,101200.48
2018-09-17T23:06:39.825Z,101208.67
2018-09-17T23:09:11.136Z,101201.15
2018-09-17T23:11:40.122Z,101203.64
2018-09-17T23:14:08.885Z,101203.03
2018-09-17T23:16:38.190Z,101197.11
2018-09-17T23:19:07.646Z,101198.67
2018-09-17T23:21:37.235Z,101195.45
2018-09-17T23:24:06.888Z,101191.20
2018-09-17T23:26:36.393Z,101185.13
2018-09-17T23:29:05.140Z,101182.58
2018-09-17T23:31:33.840Z,101179.73
2018-09-17T23:34:02.630Z,101179.23
2018-09-17T23:36:31.688Z,101180.36
2018-09-17T23:39:00.514Z,101178.66
2018-09-17T23:41:29.566Z,101174.56
2018-09-17T23:43:58.618Z,101171.63
2018-09-17T23:46:27.641Z,101162.94
2018-09-17T23:48:56.936Z,101164.64
2018-09-17T23:51:26.222Z,101163.03
2018-09-17T23:53:54.990Z,101164.31
2018-09-17T23:56:23.769Z,101156.02
2018-09-17T23:58:52.837Z,101152.41
